Time;durP1;ratioP1;P1;durP2;ratioP2;P2;SDS_P1;SDS_P2;PMS_P1;PMS_P2;Temp;Humidity;BMP_temperature;BMP_pressure;BME280_temperature;BME280_humidity;BME280_pressure;Samples;Min_cycle;Max_cycle;Signal;HPM_P1;HPM_P2
2023/09/26 00:02:00;;;;;;;6.40;3.93;;;10.30;99.90;;;;;;4943432;29;20203;-79
2023/09/26 00:04:27;;;;;;;5.10;4.23;;;10.40;99.90;;;;;;4944570;29;20223;-79
2023/09/26 00:06:57;;;;;;;6.27;4.83;;;10.40;99.90;;;;;;4942876;29;20313;-80
2023/09/26 00:09:24;;;;;;;5.40;3.77;;;10.30;99.90;;;;;;4942803;29;20218;-79
2023/09/26 00:11:51;;;;;;;4.60;4.00;;;10.50;99.90;;;;;;4924793;29;20270;-81
2023/09/26 00:14:19;;;;;;;8.73;4.27;;;10.50;99.90;;;;;;4930670;29;20282;-82
2023/09/26 00:16:45;;;;;;;5.57;4.13;;;10.50;99.90;;;;;;4942724;29;20203;-80
2023/09/26 00:19:12;;;;;;;6.57;4.07;;;10.40;99.90;;;;;;4942965;29;20226;-80
2023/09/26 00:21:39;;;;;;;4.37;3.90;;;10.00;99.90;;;;;;4953521;29;20586;-79
2023/09/26 00:24:07;;;;;;;4.60;4.10;;;9.80;99.90;;;;;;4957240;29;20323;-80
2023/09/26 00:26:33;;;;;;;8.10;4.47;;;9.70;99.90;;;;;;4944295;29;20245;-81
2023/09/26 00:29:00;;;;;;;5.83;4.27;;;9.60;99.90;;;;;;4945856;29;20233;-80
2023/09/26 00:31:28;;;;;;;4.63;4.10;;;9.70;99.90;;;;;;4944086;29;20223;-81
2023/09/26 00:33:55;;;;;;;5.43;3.80;;;9.80;99.90;;;;;;4944210;29;20266;-81
2023/09/26 00:36:22;;;;;;;9.17;4.30;;;10.00;99.90;;;;;;4944780;29;20207;-81
2023/09/26 00:38:49;;;;;;;6.63;4.40;;;10.00;99.90;;;;;;4943736;29;20246;-81
2023/09/26 00:41:16;;;;;;;9.13;4.37;;;10.10;99.90;;;;;;4944000;29;20572;-81
2023/09/26 00:43:42;;;;;;;5.93;4.47;;;10.00;99.90;;;;;;4944592;29;20275;-80
2023/09/26 00:46:11;;;;;;;5.23;4.20;;;10.30;99.90;;;;;;4944010;29;20659;-80
2023/09/26 00:48:39;;;;;;;7.73;4.57;;;9.80;99.90;;;;;;4943172;29;20317;-80
2023/09/26 00:51:07;;;;;;;5.20;4.50;;;9.60;99.90;;;;;;4943220;29;20301;-81
2023/09/26 00:53:38;;;;;;;7.17;4.63;;;9.30;99.90;;;;;;4943104;29;20203;-81
2023/09/26 00:56:05;;;;;;;5.43;4.43;;;9.00;99.90;;;;;;4944553;29;20219;-79
2023/09/26 00:58:32;;;;;;;5.27;4.50;;;9.10;99.90;;;;;;4943899;29;20255;-82
2023/09/26 01:00:59;;;;;;;4.70;4.07;;;9.10;99.90;;;;;;4943027;29;20716;-81
2023/09/26 01:03:26;;;;;;;7.60;4.83;;;9.10;99.90;;;;;;4943999;29;20290;-81
2023/09/26 01:05:54;;;;;;;4.93;4.43;;;9.20;99.90;;;;;;4947421;29;20207;-81
2023/09/26 01:08:21;;;;;;;5.40;4.20;;;9.30;99.90;;;;;;4946562;29;20231;-80
2023/09/26 01:10:48;;;;;;;5.20;4.03;;;9.60;99.90;;;;;;4945919;29;20204;-81
2023/09/26 01:13:15;;;;;;;7.03;4.43;;;9.40;99.90;;;;;;4946680;29;20234;-81
2023/09/26 01:15:43;;;;;;;4.57;3.97;;;9.40;99.90;;;;;;4946498;29;20263;-81
2023/09/26 01:18:11;;;;;;;6.60;4.60;;;9.50;99.90;;;;;;4946327;29;20219;-81
2023/09/26 01:20:39;;;;;;;5.77;4.17;;;9.80;99.90;;;;;;4946077;29;20211;-80
2023/09/26 01:23:07;;;;;;;7.03;4.73;;;9.40;99.90;;;;;;4946112;29;20215;-80
2023/09/26 01:25:36;;;;;;;5.97;4.50;;;9.40;99.90;;;;;;4945884;29;20242;-80
2023/09/26 01:28:07;;;;;;;5.90;4.00;;;9.40;99.90;;;;;;4945620;29;20230;-80
2023/09/26 01:30:34;;;;;;;4.60;4.20;;;9.30;99.90;;;;;;4946148;29;20198;-82
2023/09/26 01:33:01;;;;;;;5.77;4.00;;;9.30;99.90;;;;;;4946993;29;20215;-81
2023/09/26 01:35:27;;;;;;;6.20;4.57;;;9.40;99.90;;;;;;4946201;29;20271;-81
2023/09/26 01:37:54;;;;;;;5.13;4.20;;;9.60;99.90;;;;;;4945688;29;20620;-79
2023/09/26 01:40:21;;;;;;;4.63;4.00;;;9.60;99.90;;;;;;4947633;29;20238;-80
2023/09/26 01:42:50;;;;;;;4.23;3.80;;;9.60;99.90;;;;;;4946073;29;20203;-79
2023/09/26 01:45:16;;;;;;;4.80;4.00;;;9.60;99.90;;;;;;4946342;29;20232;-82
2023/09/26 01:47:46;;;;;;;5.57;4.00;;;9.60;99.90;;;;;;4937125;29;20246;-82
2023/09/26 01:50:13;;;;;;;8.37;4.23;;;9.50;99.90;;;;;;4945762;29;20204;-82
2023/09/26 01:52:40;;;;;;;6.90;4.17;;;9.70;99.90;;;;;;4945161;29;20571;-82
2023/09/26 01:55:09;;;;;;;4.70;3.93;;;9.80;99.90;;;;;;4946050;29;20211;-81
2023/09/26 01:57:35;;;;;;;5.77;3.80;;;9.80;99.90;;;;;;4945745;29;20219;-81
2023/09/26 02:00:10;;;;;;;5.40;4.17;;;9.80;99.90;;;;;;4945409;29;20213;-82
2023/09/26 02:02:37;;;;;;;6.23;4.27;;;9.60;99.90;;;;;;4945696;29;20308;-80
2023/09/26 02:05:04;;;;;;;5.53;4.33;;;9.90;99.90;;;;;;4945220;29;20211;-81
2023/09/26 02:07:31;;;;;;;4.87;4.27;;;9.60;99.90;;;;;;4944445;29;20261;-81
2023/09/26 02:09:58;;;;;;;4.00;3.60;;;10.10;99.90;;;;;;4944461;29;20262;-81
2023/09/26 02:12:24;;;;;;;5.77;4.13;;;9.50;99.90;;;;;;4944604;29;20209;-81
2023/09/26 02:14:51;;;;;;;4.47;4.00;;;9.30;99.90;;;;;;4944977;29;20214;-82
2023/09/26 02:17:19;;;;;;;4.23;3.73;;;9.30;99.90;;;;;;4944886;29;20599;-80
2023/09/26 02:19:46;;;;;;;4.87;4.03;;;9.40;99.90;;;;;;4944464;29;20210;-80
2023/09/26 02:22:13;;;;;;;5.17;3.60;;;9.40;99.90;;;;;;4938715;29;20291;-80
2023/09/26 02:24:40;;;;;;;6.37;4.63;;;9.30;99.90;;;;;;4945219;29;20207;-80
2023/09/26 02:27:06;;;;;;;5.57;4.20;;;9.20;99.90;;;;;;4944947;29;20215;-80
2023/09/26 02:29:33;;;;;;;6.03;4.47;;;9.40;99.90;;;;;;4944902;29;20229;-80
2023/09/26 02:32:00;;;;;;;4.80;4.33;;;9.30;99.90;;;;;;4944900;29;20230;-79
2023/09/26 02:34:28;;;;;;;4.87;4.20;;;9.30;99.90;;;;;;4945114;29;20203;-80
2023/09/26 02:36:55;;;;;;;4.60;4.00;;;9.40;99.90;;;;;;4941608;29;20215;-80
2023/09/26 02:39:22;;;;;;;5.40;4.37;;;9.30;99.90;;;;;;4932411;29;20238;-82
2023/09/26 02:41:49;;;;;;;5.77;4.40;;;9.30;99.90;;;;;;4944746;29;20234;-80
2023/09/26 02:44:15;;;;;;;5.77;4.10;;;9.30;99.90;;;;;;4950165;29;20654;-80
2023/09/26 02:46:42;;;;;;;6.77;4.60;;;9.00;99.90;;;;;;4942233;29;20199;-80
2023/09/26 02:49:09;;;;;;;6.67;4.07;;;9.20;99.90;;;;;;4942259;29;20242;-78
2023/09/26 02:51:37;;;;;;;6.90;4.23;;;9.00;99.90;;;;;;4941654;29;20225;-81
2023/09/26 02:54:04;;;;;;;4.80;4.10;;;8.90;99.90;;;;;;4943951;29;20214;-80
2023/09/26 02:56:31;;;;;;;4.87;3.80;;;9.00;99.90;;;;;;4944541;29;20238;-80
2023/09/26 02:58:58;;;;;;;6.70;4.20;;;9.10;99.90;;;;;;4940770;29;20247;-80
2023/09/26 03:01:25;;;;;;;5.03;4.00;;;9.30;99.90;;;;;;4939676;29;20709;-80
2023/09/26 03:03:53;;;;;;;4.87;3.60;;;9.30;99.90;;;;;;4935807;29;20270;-81
2023/09/26 03:06:20;;;;;;;5.63;4.00;;;9.20;99.90;;;;;;4944045;29;20652;-81
2023/09/26 03:08:48;;;;;;;5.60;4.53;;;9.30;99.90;;;;;;4943782;29;20318;-80
2023/09/26 03:11:15;;;;;;;6.57;4.40;;;8.90;99.90;;;;;;4950561;29;20294;-80
2023/09/26 03:13:42;;;;;;;6.27;4.40;;;8.50;99.90;;;;;;4943417;29;20209;-79
2023/09/26 03:16:08;;;;;;;6.37;4.40;;;8.30;99.90;;;;;;4944446;29;20234;-80
2023/09/26 03:18:36;;;;;;;5.70;4.37;;;8.20;99.90;;;;;;4945279;29;20262;-78
2023/09/26 03:21:05;;;;;;;7.93;4.93;;;8.20;99.90;;;;;;4944274;29;20221;-81
2023/09/26 03:23:32;;;;;;;6.93;5.37;;;8.50;99.90;;;;;;4943949;29;20210;-82
2023/09/26 03:26:01;;;;;;;14.30;6.00;;;8.70;99.90;;;;;;4948757;29;20223;-82
2023/09/26 03:28:27;;;;;;;6.50;5.40;;;8.70;99.90;;;;;;4940652;29;20231;-81
2023/09/26 03:30:55;;;;;;;8.03;4.73;;;8.60;99.90;;;;;;4941868;29;20203;-82
2023/09/26 03:33:22;;;;;;;4.97;4.47;;;8.60;99.90;;;;;;4941675;29;20290;-80
2023/09/26 03:35:49;;;;;;;6.60;5.00;;;8.60;99.90;;;;;;4926265;29;20239;-82
2023/09/26 03:38:15;;;;;;;8.17;5.90;;;8.60;99.90;;;;;;4942466;29;20235;-79
2023/09/26 03:40:42;;;;;;;6.63;5.90;;;8.60;99.90;;;;;;4926381;29;20212;-79
2023/09/26 03:43:10;;;;;;;9.60;8.70;;;8.70;99.90;;;;;;4940733;29;20215;-81
2023/09/26 03:45:37;;;;;;;6.57;5.43;;;9.00;99.90;;;;;;4941113;29;20203;-80
2023/09/26 03:48:04;;;;;;;6.73;4.80;;;8.80;99.90;;;;;;4940391;29;20227;-81
2023/09/26 03:50:31;;;;;;;5.23;4.50;;;8.70;99.90;;;;;;4940816;29;20211;-80
2023/09/26 03:52:58;;;;;;;4.50;4.10;;;8.80;99.90;;;;;;4941491;29;20210;-81
2023/09/26 03:55:24;;;;;;;5.80;4.40;;;8.80;99.90;;;;;;4940813;29;20685;-79
2023/09/26 03:57:51;;;;;;;8.80;5.03;;;8.90;99.90;;;;;;4922811;29;20287;-79
2023/09/26 04:00:25;;;;;;;6.30;5.10;;;8.60;99.90;;;;;;4936077;29;20577;-79
2023/09/26 04:02:54;;;;;;;4.90;4.03;;;8.40;99.90;;;;;;4940813;29;20773;-79
2023/09/26 04:05:21;;;;;;;7.63;5.70;;;8.80;99.90;;;;;;4941039;29;20234;-78
2023/09/26 04:07:48;;;;;;;6.53;4.83;;;8.40;99.90;;;;;;4941031;29;20223;-81
2023/09/26 04:10:14;;;;;;;6.60;4.90;;;8.00;99.90;;;;;;4940804;29;20217;-79
2023/09/26 04:12:41;;;;;;;7.87;4.80;;;8.10;99.90;;;;;;4940356;29;20207;-81
2023/09/26 04:15:09;;;;;;;6.00;5.10;;;8.00;99.90;;;;;;4940414;29;20571;-79
2023/09/26 04:17:37;;;;;;;9.50;5.00;;;8.00;99.90;;;;;;4940938;29;20278;-80
2023/09/26 04:20:10;;;;;;;7.07;5.37;;;8.20;99.90;;;;;;4941330;29;20210;-82
2023/09/26 04:22:37;;;;;;;10.43;5.37;;;8.10;99.90;;;;;;4940783;29;20202;-80
2023/09/26 04:25:04;;;;;;;6.07;4.83;;;8.30;99.90;;;;;;4940089;29;20210;-79
2023/09/26 04:27:31;;;;;;;6.47;4.87;;;8.10;99.90;;;;;;4939513;29;20227;-81
2023/09/26 04:29:58;;;;;;;6.57;5.10;;;8.60;99.90;;;;;;4940332;29;20837;-80
2023/09/26 04:32:25;;;;;;;8.47;5.53;;;8.20;99.90;;;;;;4939943;29;20210;-80
2023/09/26 04:34:53;;;;;;;8.20;5.40;;;8.10;99.90;;;;;;4940546;29;20291;-81
2023/09/26 04:37:20;;;;;;;7.03;5.40;;;8.10;99.90;;;;;;4940121;29;20245;-79
2023/09/26 04:39:47;;;;;;;5.90;5.30;;;8.30;99.90;;;;;;4942572;29;20705;-81
2023/09/26 04:42:14;;;;;;;6.47;5.83;;;8.40;99.90;;;;;;4944510;29;20675;-80
2023/09/26 04:44:40;;;;;;;7.00;5.90;;;8.30;99.90;;;;;;4944293;29;20211;-79
2023/09/26 04:47:07;;;;;;;9.23;5.83;;;8.30;99.90;;;;;;4943915;29;20215;-79
2023/09/26 04:49:34;;;;;;;7.00;5.90;;;8.30;99.90;;;;;;4943852;29;20622;-80
2023/09/26 04:52:03;;;;;;;8.63;6.20;;;8.40;99.90;;;;;;4944235;29;20266;-81
2023/09/26 04:54:30;;;;;;;8.63;5.43;;;8.40;99.90;;;;;;4943662;29;20214;-81
2023/09/26 04:56:56;;;;;;;7.10;5.50;;;8.50;99.90;;;;;;4943699;29;20750;-79
2023/09/26 04:59:23;;;;;;;8.03;5.70;;;8.50;99.90;;;;;;4943917;29;20205;-82
2023/09/26 05:01:50;;;;;;;8.77;5.80;;;8.50;99.90;;;;;;4943404;29;20217;-80
2023/09/26 05:04:17;;;;;;;10.83;5.70;;;8.50;99.90;;;;;;4944417;29;20203;-81
2023/09/26 05:06:43;;;;;;;7.43;5.57;;;8.50;99.90;;;;;;4944535;29;20333;-81
2023/09/26 05:09:12;;;;;;;5.80;4.90;;;8.60;99.90;;;;;;4943913;29;20270;-81
2023/09/26 05:11:38;;;;;;;8.70;5.90;;;8.40;99.90;;;;;;4927052;29;20222;-80
2023/09/26 05:14:05;;;;;;;6.30;5.20;;;8.10;99.90;;;;;;4936627;29;20207;-82
2023/09/26 05:16:32;;;;;;;6.60;5.80;;;7.80;99.90;;;;;;4943126;29;20209;-79
2023/09/26 05:18:58;;;;;;;7.73;5.17;;;7.80;99.90;;;;;;4941033;29;20233;-79
2023/09/26 05:21:25;;;;;;;7.17;4.93;;;7.80;99.90;;;;;;4952575;29;20556;-80
2023/09/26 05:23:52;;;;;;;6.70;5.47;;;7.80;99.90;;;;;;4956075;29;20578;-81
2023/09/26 05:26:20;;;;;;;8.63;6.23;;;8.00;99.90;;;;;;4941908;29;20210;-80
2023/09/26 05:28:47;;;;;;;8.53;5.37;;;8.20;99.90;;;;;;4942111;29;20218;-80
2023/09/26 05:31:13;;;;;;;7.07;5.93;;;8.10;99.90;;;;;;4942170;29;20199;-79
2023/09/26 05:33:40;;;;;;;6.80;5.33;;;8.00;99.90;;;;;;4942566;29;20210;-79
2023/09/26 05:36:07;;;;;;;8.33;6.20;;;8.10;99.90;;;;;;4942729;29;20207;-80
2023/09/26 05:38:34;;;;;;;7.60;5.37;;;8.30;99.90;;;;;;4943311;29;20725;-79
2023/09/26 05:41:02;;;;;;;11.07;6.40;;;8.40;99.90;;;;;;4942691;29;20237;-80
2023/09/26 05:43:30;;;;;;;10.30;6.20;;;7.90;99.90;;;;;;4942312;29;20203;-79
2023/09/26 05:45:57;;;;;;;13.33;6.30;;;8.00;99.90;;;;;;4942028;29;20211;-81
2023/09/26 05:48:24;;;;;;;10.17;6.30;;;8.10;99.90;;;;;;4941358;29;20602;-80
2023/09/26 05:50:59;;;;;;;9.03;5.73;;;8.40;99.90;;;;;;4941343;29;20577;-78
2023/09/26 05:53:26;;;;;;;8.77;6.30;;;8.30;99.90;;;;;;4941482;29;20207;-80
2023/09/26 05:55:53;;;;;;;12.53;6.40;;;8.40;99.90;;;;;;4941635;29;20225;-78
2023/09/26 05:58:19;;;;;;;11.00;6.13;;;8.30;99.90;;;;;;4941318;29;20229;-81
2023/09/26 06:00:48;;;;;;;13.13;6.30;;;8.40;99.90;;;;;;4943151;29;20674;-80
2023/09/26 06:03:15;;;;;;;11.50;5.80;;;8.40;99.90;;;;;;4943431;29;20605;-81
2023/09/26 06:05:44;;;;;;;7.93;5.30;;;8.40;99.90;;;;;;4943034;29;20248;-80
2023/09/26 06:08:11;;;;;;;7.93;5.50;;;8.40;99.90;;;;;;4942982;29;20227;-80
2023/09/26 06:10:37;;;;;;;14.07;5.93;;;8.50;99.90;;;;;;4942813;29;20666;-79
2023/09/26 06:13:04;;;;;;;11.30;6.37;;;8.60;99.90;;;;;;4942574;29;20225;-79
2023/09/26 06:15:31;;;;;;;9.10;6.07;;;8.60;99.90;;;;;;4943091;29;20225;-81
2023/09/26 06:18:00;;;;;;;7.17;5.60;;;8.70;99.90;;;;;;4938965;29;20266;-80
2023/09/26 06:20:28;;;;;;;9.57;5.90;;;8.80;99.90;;;;;;4942683;29;20214;-80
2023/09/26 06:22:55;;;;;;;7.50;5.37;;;9.00;99.90;;;;;;4943182;29;20211;-79
2023/09/26 06:25:22;;;;;;;10.20;5.67;;;9.00;99.90;;;;;;4942181;29;20217;-79
2023/09/26 06:27:49;;;;;;;9.27;6.20;;;9.00;99.90;;;;;;4941920;29;20283;-80
2023/09/26 06:30:16;;;;;;;8.20;5.70;;;9.20;99.90;;;;;;4942452;29;20219;-78
2023/09/26 06:32:43;;;;;;;8.20;5.63;;;9.20;99.90;;;;;;4941884;29;20231;-81
2023/09/26 06:35:12;;;;;;;8.17;5.77;;;9.20;99.90;;;;;;4941380;29;20299;-81
2023/09/26 06:37:39;;;;;;;5.80;5.13;;;9.30;99.90;;;;;;4940768;29;20294;-80
2023/09/26 06:40:07;;;;;;;10.43;6.27;;;9.40;99.90;;;;;;4941794;29;20227;-81
2023/09/26 06:42:35;;;;;;;8.57;6.27;;;9.40;99.90;;;;;;4941880;29;20663;-81
2023/09/26 06:45:03;;;;;;;8.77;6.00;;;9.50;99.90;;;;;;4949519;29;20206;-80
2023/09/26 06:47:30;;;;;;;7.63;5.40;;;9.60;99.90;;;;;;4941763;29;20622;-80
2023/09/26 06:49:57;;;;;;;7.13;5.53;;;9.50;99.90;;;;;;4941125;29;20702;-79
2023/09/26 06:52:25;;;;;;;7.50;5.77;;;9.80;99.90;;;;;;4940779;29;20211;-79
2023/09/26 06:54:52;;;;;;;7.77;5.67;;;9.80;99.90;;;;;;4940280;29;20211;-79
2023/09/26 06:57:26;;;;;;;7.43;5.17;;;9.90;99.90;;;;;;4940515;29;20223;-79
2023/09/26 06:59:52;;;;;;;8.50;5.93;;;10.00;99.90;;;;;;4940765;29;20188;-81
2023/09/26 07:02:20;;;;;;;7.97;5.73;;;10.10;99.90;;;;;;4940971;29;20670;-79
2023/09/26 07:04:52;;;;;;;7.50;6.23;;;10.20;99.90;;;;;;4940703;29;20270;-79
2023/09/26 07:07:18;;;;;;;7.70;5.40;;;10.20;99.90;;;;;;4941479;29;20314;-80
2023/09/26 07:09:46;;;;;;;9.77;6.83;;;10.50;99.90;;;;;;4940580;29;20223;-80
2023/09/26 07:12:13;;;;;;;9.63;6.77;;;10.50;99.90;;;;;;4937960;29;20211;-79
2023/09/26 07:14:40;;;;;;;8.87;6.37;;;10.70;99.90;;;;;;4933240;29;20203;-79
2023/09/26 07:17:09;;;;;;;8.00;5.40;;;10.70;99.90;;;;;;4940133;29;20215;-81
2023/09/26 07:19:36;;;;;;;10.17;5.90;;;10.90;99.90;;;;;;4939937;29;20210;-79
2023/09/26 07:22:02;;;;;;;7.07;6.07;;;11.10;99.90;;;;;;4940007;29;20590;-79
2023/09/26 07:24:29;;;;;;;9.10;5.80;;;11.20;99.90;;;;;;4942128;29;20266;-82
2023/09/26 07:26:57;;;;;;;6.63;5.27;;;11.40;99.90;;;;;;4941532;29;20290;-81
2023/09/26 07:29:24;;;;;;;10.40;6.67;;;11.70;99.90;;;;;;4932699;29;20294;-81
2023/09/26 07:31:52;;;;;;;9.10;6.87;;;12.00;99.90;;;;;;4941332;29;20239;-81
2023/09/26 07:34:20;;;;;;;12.03;6.27;;;13.60;99.90;;;;;;4941687;29;20207;-81
2023/09/26 07:36:47;;;;;;;7.50;5.77;;;14.60;99.90;;;;;;4940969;29;20206;-81
2023/09/26 07:39:15;;;;;;;9.70;5.70;;;14.30;99.90;;;;;;4941689;29;20227;-82
2023/09/26 07:41:41;;;;;;;6.60;5.27;;;14.10;99.90;;;;;;4941838;29;20274;-80
2023/09/26 07:44:10;;;;;;;6.97;4.67;;;13.50;99.90;;;;;;4941673;29;20230;-83
2023/09/26 07:46:37;;;;;;;6.63;4.80;;;13.40;99.90;;;;;;4941345;29;20203;-81
2023/09/26 07:49:04;;;;;;;7.03;4.93;;;13.90;99.90;;;;;;4941089;29;20261;-82
2023/09/26 07:51:32;;;;;;;5.57;4.80;;;13.60;99.90;;;;;;4940939;29;20214;-79
2023/09/26 07:53:59;;;;;;;6.03;4.40;;;13.60;99.90;;;;;;4942237;29;20686;-81
2023/09/26 07:56:26;;;;;;;5.80;4.80;;;14.00;99.90;;;;;;4941871;29;20217;-79
2023/09/26 07:58:53;;;;;;;5.37;4.83;;;14.40;99.90;;;;;;4942017;29;20237;-80
2023/09/26 08:01:22;;;;;;;4.83;4.33;;;14.50;99.90;;;;;;4941551;29;20207;-79
2023/09/26 08:03:48;;;;;;;5.10;4.60;;;14.60;99.90;;;;;;4941476;29;20219;-79
2023/09/26 08:06:16;;;;;;;5.83;4.27;;;14.60;99.90;;;;;;4941149;29;20594;-79
2023/09/26 08:08:43;;;;;;;7.67;4.40;;;14.60;99.90;;;;;;4941455;29;20234;-80
2023/09/26 08:11:12;;;;;;;5.60;4.33;;;14.40;99.90;;;;;;4941522;29;20217;-79
2023/09/26 08:13:40;;;;;;;6.30;4.93;;;14.50;99.90;;;;;;4931562;29;20207;-81
2023/09/26 08:16:07;;;;;;;5.90;4.75;;;14.20;99.90;;;;;;4941252;29;20218;-81
2023/09/26 08:18:35;;;;;;;6.37;5.23;;;14.20;99.90;;;;;;4935752;29;20234;-82
2023/09/26 08:21:02;;;;;;;6.77;5.30;;;14.30;99.90;;;;;;4940876;29;20706;-80
2023/09/26 08:23:29;;;;;;;6.83;5.90;;;14.40;99.90;;;;;;4941727;29;20868;-80
2023/09/26 08:25:57;;;;;;;7.07;5.57;;;14.50;99.90;;;;;;4958675;29;20238;-79
2023/09/26 08:28:25;;;;;;;7.00;5.37;;;14.60;99.90;;;;;;4944633;29;20227;-81
2023/09/26 08:30:56;;;;;;;7.85;5.80;;;14.70;99.90;;;;;;4940931;29;20231;-81
2023/09/26 08:33:23;;;;;;;5.80;5.20;;;14.80;99.90;;;;;;4941245;29;20548;-79
2023/09/26 08:35:51;;;;;;;7.50;5.87;;;14.80;99.90;;;;;;4940842;29;20582;-81
2023/09/26 08:38:18;;;;;;;8.68;5.15;;;14.70;99.90;;;;;;4940446;29;20617;-79
2023/09/26 08:40:46;;;;;;;7.47;4.95;;;15.10;99.90;;;;;;4941044;29;20214;-81
2023/09/26 08:43:14;;;;;;;10.50;5.70;;;15.20;99.90;;;;;;4939987;29;20266;-82
2023/09/26 08:45:41;;;;;;;7.63;4.97;;;15.30;99.90;;;;;;4942071;29;20211;-81
2023/09/26 08:48:08;;;;;;;6.75;4.88;;;15.60;99.90;;;;;;4942015;29;20227;-81
2023/09/26 08:50:35;;;;;;;7.55;4.63;;;16.10;99.90;;;;;;4941685;29;20231;-82
2023/09/26 08:53:04;;;;;;;7.03;4.22;;;16.40;99.90;;;;;;4942655;29;20567;-82
2023/09/26 08:55:31;;;;;;;4.43;3.80;;;16.20;99.90;;;;;;4943059;29;20651;-82
2023/09/26 08:57:58;;;;;;;4.28;3.90;;;16.80;99.90;;;;;;4942536;29;20670;-80
2023/09/26 09:00:27;;;;;;;5.60;4.10;;;16.40;99.90;;;;;;4941800;29;20623;-83
2023/09/26 09:02:54;;;;;;;6.07;3.92;;;16.60;99.90;;;;;;4941527;29;20302;-83
2023/09/26 09:05:22;;;;;;;6.63;4.38;;;16.90;99.90;;;;;;4941616;29;20207;-83
2023/09/26 09:07:50;;;;;;;5.68;4.85;;;17.20;99.90;;;;;;4953843;29;20684;-84
2023/09/26 09:10:18;;;;;;;4.97;4.28;;;17.60;99.90;;;;;;4953147;29;20231;-82
2023/09/26 09:12:47;;;;;;;4.57;4.03;;;17.90;99.90;;;;;;4939675;29;20225;-82
2023/09/26 09:15:23;;;;;;;5.10;4.05;;;17.90;99.90;;;;;;4941111;29;20209;-84
2023/09/26 09:17:52;;;;;;;6.38;3.85;;;18.00;99.90;;;;;;4940531;29;20235;-81
2023/09/26 09:20:30;;;;;;;4.63;4.22;;;18.40;99.90;;;;;;4941306;29;20203;-82
2023/09/26 09:23:01;;;;;;;6.93;4.57;;;18.90;99.90;;;;;;4940064;29;20195;-81
2023/09/26 09:25:34;;;;;;;6.78;3.88;;;19.10;99.90;;;;;;4940519;29;20262;-81
2023/09/26 09:28:02;;;;;;;4.60;4.15;;;19.30;99.90;;;;;;4945304;29;20265;-81
2023/09/26 09:30:29;;;;;;;7.32;4.50;;;19.80;99.90;;;;;;4943750;29;20237;-82
2023/09/26 09:32:57;;;;;;;5.28;4.03;;;20.00;99.90;;;;;;4943391;29;20214;-81
2023/09/26 09:35:24;;;;;;;7.50;3.78;;;20.30;99.90;;;;;;4937162;29;20208;-82
2023/09/26 09:37:51;;;;;;;5.38;3.78;;;20.50;99.90;;;;;;4937562;29;20231;-81
2023/09/26 09:40:19;;;;;;;6.60;3.88;;;21.10;99.90;;;;;;4943381;29;20199;-82
2023/09/26 09:42:48;;;;;;;7.25;3.40;;;21.50;99.90;;;;;;4943362;29;20282;-81
2023/09/26 09:45:15;;;;;;;8.80;3.38;;;21.50;99.90;;;;;;4942520;29;20255;-82
2023/09/26 09:47:45;;;;;;;3.58;3.25;;;21.40;99.90;;;;;;4943215;29;20318;-81
2023/09/26 09:50:13;;;;;;;6.00;3.45;;;21.80;99.90;;;;;;4944393;29;20245;-81
2023/09/26 09:52:44;;;;;;;5.72;3.05;;;22.00;99.90;;;;;;4943376;29;20270;-81
2023/09/26 09:55:16;;;;;;;3.28;2.80;;;21.70;99.90;;;;;;4942262;29;20210;-82
2023/09/26 09:57:46;;;;;;;5.88;3.20;;;21.80;99.90;;;;;;4922786;29;20247;-81
2023/09/26 10:00:15;;;;;;;3.78;2.83;;;21.90;99.90;;;;;;4931485;29;20199;-81
2023/09/26 10:02:43;;;;;;;4.95;3.00;;;22.30;99.90;;;;;;4943260;29;20270;-82
2023/09/26 10:05:12;;;;;;;2.80;2.60;;;22.10;99.90;;;;;;4943083;29;20207;-82
2023/09/26 10:07:41;;;;;;;6.40;3.35;;;22.20;99.90;;;;;;4942080;29;20647;-83
2023/09/26 10:10:09;;;;;;;3.72;2.60;;;22.30;99.90;;;;;;4937675;29;20224;-84
2023/09/26 10:12:37;;;;;;;2.47;2.28;;;22.60;99.90;;;;;;4923032;29;20204;-83
2023/09/26 10:15:09;;;;;;;6.40;2.80;;;22.40;99.90;;;;;;4942986;29;20211;-83
2023/09/26 10:17:37;;;;;;;3.92;2.70;;;22.70;99.90;;;;;;4943344;28;20223;-82
2023/09/26 10:20:07;;;;;;;4.05;2.50;;;23.10;99.90;;;;;;4942374;29;20199;-83
2023/09/26 10:22:35;;;;;;;2.58;2.38;;;23.40;99.90;;;;;;4942237;29;20207;-81
2023/09/26 10:25:04;;;;;;;3.17;2.88;;;23.30;99.90;;;;;;4940967;29;20278;-82
2023/09/26 10:27:40;;;;;;;4.60;2.40;;;23.30;99.90;;;;;;4941283;29;20239;-80
2023/09/26 10:30:10;;;;;;;4.63;2.63;;;23.30;99.90;;;;;;4923824;29;20229;-80
2023/09/26 10:32:41;;;;;;;5.30;2.65;;;23.60;99.90;;;;;;4939751;29;20293;-80
2023/09/26 10:35:28;;;;;;;3.83;2.28;;;23.50;99.90;;;;;;4941923;29;20210;-81
2023/09/26 10:38:01;;;;;;;3.17;2.00;;;23.80;99.90;;;;;;4933272;29;20645;-79
2023/09/26 10:40:29;;;;;;;4.22;2.28;;;24.20;99.90;;;;;;4942484;29;20203;-81
2023/09/26 10:42:55;;;;;;;2.30;2.10;;;24.00;99.90;;;;;;4933173;29;20213;-80
2023/09/26 10:45:22;;;;;;;2.22;2.13;;;23.60;99.90;;;;;;4941329;29;20214;-80
2023/09/26 10:47:50;;;;;;;2.47;2.28;;;23.80;99.90;;;;;;4940014;29;20231;-79
2023/09/26 10:50:16;;;;;;;2.28;2.08;;;23.70;99.90;;;;;;4932777;29;20226;-81
2023/09/26 10:52:47;;;;;;;3.42;2.25;;;23.90;99.90;;;;;;4940167;29;20289;-79
2023/09/26 10:55:15;;;;;;;2.70;2.47;;;23.90;99.90;;;;;;4935163;29;20207;-79
2023/09/26 10:57:43;;;;;;;2.58;2.38;;;24.20;99.90;;;;;;4940141;29;20691;-80
2023/09/26 11:00:12;;;;;;;5.40;2.60;;;24.10;99.90;;;;;;4941761;29;20225;-80
2023/09/26 11:02:39;;;;;;;2.70;2.50;;;23.70;99.90;;;;;;4940407;29;20218;-78
2023/09/26 11:05:09;;;;;;;2.67;2.45;;;23.70;99.90;;;;;;4941370;29;20218;-78
2023/09/26 11:07:36;;;;;;;2.47;2.22;;;23.70;99.90;;;;;;4933032;29;20234;-78
2023/09/26 11:10:04;;;;;;;2.00;1.90;;;23.90;99.90;;;;;;4932281;29;20233;-79
2023/09/26 11:12:31;;;;;;;2.50;2.40;;;24.20;99.90;;;;;;4932414;29;20671;-78
2023/09/26 11:14:59;;;;;;;3.22;2.30;;;24.50;99.90;;;;;;4936697;29;20239;-80
2023/09/26 11:17:27;;;;;;;2.63;2.38;;;24.50;99.90;;;;;;4937294;29;20233;-81
2023/09/26 11:19:57;;;;;;;2.47;2.30;;;24.50;99.90;;;;;;4941869;29;20213;-82
2023/09/26 11:22:25;;;;;;;2.65;2.45;;;24.70;99.90;;;;;;4939279;29;20262;-81
2023/09/26 11:25:06;;;;;;;3.40;2.28;;;24.70;99.90;;;;;;4936315;29;20659;-81
2023/09/26 11:27:37;;;;;;;2.92;2.33;;;24.90;99.90;;;;;;4936779;29;20648;-80
2023/09/26 11:30:04;;;;;;;2.72;2.45;;;24.60;99.90;;;;;;4939752;29;20699;-81
2023/09/26 11:32:31;;;;;;;1.83;1.73;;;24.40;99.90;;;;;;4939381;29;20744;-80
2023/09/26 11:34:58;;;;;;;3.92;2.50;;;24.70;99.90;;;;;;4936264;29;20222;-78
2023/09/26 11:37:26;;;;;;;2.38;2.10;;;24.70;99.90;;;;;;4927130;29;20242;-80
2023/09/26 11:39:54;;;;;;;2.20;2.10;;;24.70;99.90;;;;;;4931905;29;20195;-79
2023/09/26 11:42:21;;;;;;;4.00;2.22;;;24.90;99.90;;;;;;4937590;29;20211;-79
2023/09/26 11:44:54;;;;;;;2.90;2.60;;;24.80;99.90;;;;;;4930108;29;20218;-79
2023/09/26 11:47:22;;;;;;;2.75;2.03;;;24.80;99.90;;;;;;4936790;29;20274;-78
2023/09/26 11:49:49;;;;;;;2.42;2.30;;;24.30;99.90;;;;;;4935802;29;20679;-80
2023/09/26 11:52:17;;;;;;;3.55;2.10;;;24.70;99.90;;;;;;4937267;29;20207;-79
2023/09/26 11:54:45;;;;;;;3.85;2.45;;;24.90;99.90;;;;;;4921639;29;20215;-79
2023/09/26 11:57:13;;;;;;;3.10;1.80;;;25.30;99.90;;;;;;4924073;29;20244;-79
2023/09/26 11:59:40;;;;;;;2.83;2.30;;;25.20;99.90;;;;;;4926621;29;20241;-80
2023/09/26 12:02:07;;;;;;;1.95;1.85;;;25.40;99.90;;;;;;4936787;29;20615;-79
2023/09/26 12:04:35;;;;;;;3.22;2.20;;;25.30;99.90;;;;;;4936630;29;20249;-79
2023/09/26 12:07:03;;;;;;;3.63;2.22;;;24.80;99.90;;;;;;4933054;29;20271;-80
2023/09/26 12:09:29;;;;;;;2.40;2.20;;;25.00;99.90;;;;;;4926808;29;20238;-79
2023/09/26 12:11:58;;;;;;;2.47;2.20;;;25.10;99.90;;;;;;4940703;29;20251;-79
2023/09/26 12:14:25;;;;;;;2.38;2.17;;;25.30;99.90;;;;;;4937425;29;20294;-80
2023/09/26 12:16:51;;;;;;;2.33;2.15;;;25.40;99.90;;;;;;4941410;29;20213;-80
2023/09/26 12:19:19;;;;;;;2.03;1.92;;;25.50;99.90;;;;;;4941017;29;20694;-80
2023/09/26 12:21:52;;;;;;;2.58;2.38;;;24.80;99.90;;;;;;4942178;29;20223;-80
2023/09/26 12:24:19;;;;;;;2.50;2.30;;;25.40;99.90;;;;;;4936302;29;20670;-78
2023/09/26 12:26:46;;;;;;;2.50;2.30;;;25.40;99.90;;;;;;4940557;29;20213;-79
2023/09/26 12:29:15;;;;;;;2.83;2.63;;;25.10;99.90;;;;;;4940552;29;20360;-79
2023/09/26 12:31:43;;;;;;;2.35;2.15;;;25.30;99.90;;;;;;4941391;29;20694;-80
2023/09/26 12:34:10;;;;;;;2.42;2.22;;;25.60;99.90;;;;;;4938967;29;20223;-81
2023/09/26 12:36:37;;;;;;;2.50;2.30;;;25.20;99.90;;;;;;4939289;29;20217;-79
2023/09/26 12:39:04;;;;;;;3.17;2.10;;;25.70;99.90;;;;;;4940364;29;20322;-78
2023/09/26 12:41:30;;;;;;;2.08;1.98;;;26.10;99.90;;;;;;4940661;29;20203;-79
2023/09/26 12:43:58;;;;;;;2.60;2.20;;;25.30;99.90;;;;;;4940325;29;20798;-79
2023/09/26 12:46:26;;;;;;;3.97;2.20;;;25.80;99.90;;;;;;4940271;29;20207;-79
2023/09/26 12:48:54;;;;;;;4.70;2.10;;;25.50;99.90;;;;;;4934810;29;20237;-78
2023/09/26 12:51:20;;;;;;;2.13;1.95;;;25.80;99.90;;;;;;4939269;29;20235;-78
2023/09/26 12:53:48;;;;;;;4.18;2.20;;;26.20;99.90;;;;;;4939060;29;20275;-79